SBOSBO EWR / KEWR
Speedbird OnlineSpeedbird Online EWR / KEWR

Newark Liberty International Airport
21:13 4.8°C

Location Newark, United States
Latitude: 40.692501068115234
Longitude: -74.168701171875
Web Airport Website | Wikipedia
Altitude 5 Meter / 18 Feet
Distance 5,599 KM / 3,479 Miles
from London.
Time Zone UTC -5 hours (America/New_York)
Codes IATA: EWR
ICAO: KEWR
Currency £1 equals USD 1.24
Runways
RunwayLength (m)Surface
04L3353Asphalt
04R3048Asphalt
112073Partial
22L3048Asphalt
22R3353Asphalt
292073Partial
Radio
TypeDescriptionFrequency
APPNEW YORK APP127.6
ATISATIS115.7
CLDCLNC DEL118.85
DEPNEW YORK DEP119.2
GNDGND121.8
TWRTWR118.3
UNICUNICOM122.95
Live ATC
METAR KEWR 270151Z 24014G19KT 10SM FEW050 06/M04 A2986 RMK AO2 SLP111 T00561039
TAF KEWR 262320Z 2700/2806 26016G24KT P6SM BKN045 FM270100 26013G21KT P6SM SCT045 FM270600 26007KT P6SM SCT080 FM271800 26009KT P6SM SCT050 FM280500 23007KT P6SM SCT150
Weather As Of 26 Jan 2023 21:13
Description Few clouds
Wind 26 km/h from South-West (240°)
Cloud Cover 20%
Precipitation Rain: none, Snow: none
Sunrise 07:12
Sunset 17:06
Lounges American Airlines Admirals Club, Terminal A
British Airways Lounge (Open), Terminal B
Rotations During the last 90 days there were
202 flights from LHR
206 flights to LHR



Support Speedbird Online

© 2017-2023 Speedbird Online